createdAt,value
2019-03-30T00:00:42.218Z,10.25
2019-03-30T00:03:10.734Z,10.95
2019-03-30T00:05:39.374Z,11.20
2019-03-30T00:08:07.957Z,10.70
2019-03-30T00:10:36.784Z,10.72
2019-03-30T00:13:05.777Z,10.85
2019-03-30T00:15:34.348Z,11.70
2019-03-30T00:18:02.987Z,12.05
2019-03-30T00:20:31.652Z,12.60
2019-03-30T00:23:00.333Z,11.95
2019-03-30T00:25:28.992Z,11.22
2019-03-30T00:27:57.547Z,13.18
2019-03-30T00:30:26.168Z,12.43
2019-03-30T00:32:54.790Z,12.70
2019-03-30T00:35:23.446Z,13.28
2019-03-30T00:37:52.115Z,12.68
2019-03-30T00:40:20.749Z,11.70
2019-03-30T00:42:50.156Z,12.73
2019-03-30T00:45:19.247Z,12.53
2019-03-30T00:47:47.880Z,13.28
2019-03-30T00:50:16.525Z,12.53
2019-03-30T00:52:45.100Z,13.18
2019-03-30T00:55:13.665Z,12.95
2019-03-30T00:57:42.232Z,11.88
2019-03-30T01:00:11.242Z,12.28
2019-03-30T01:02:39.805Z,12.28
2019-03-30T01:05:08.528Z,11.68
2019-03-30T01:07:37.093Z,12.95
2019-03-30T01:10:06.943Z,12.25
2019-03-30T01:12:35.710Z,14.35
2019-03-30T01:15:06.572Z,13.70
2019-03-30T01:17:35.204Z,13.32
2019-03-30T01:20:05.872Z,14.13
2019-03-30T01:22:34.529Z,13.72
2019-03-30T01:25:03.542Z,13.58
2019-03-30T01:27:32.193Z,14.85
2019-03-30T01:30:00.694Z,13.98
2019-03-30T01:32:29.274Z,14.07
2019-03-30T01:34:57.794Z,15.58
2019-03-30T01:37:26.369Z,14.45
2019-03-30T01:39:55.018Z,14.03
2019-03-30T01:42:23.641Z,14.23
2019-03-30T01:44:52.209Z,13.13
2019-03-30T01:47:20.711Z,13.95
2019-03-30T01:49:49.548Z,14.07
2019-03-30T01:52:18.198Z,13.75
2019-03-30T01:54:47.100Z,12.65
2019-03-30T01:57:15.980Z,13.90
2019-03-30T01:59:44.626Z,14.03
2019-03-30T02:02:13.201Z,13.98
2019-03-30T02:04:41.787Z,13.65
2019-03-30T02:07:10.354Z,13.53
2019-03-30T02:09:39.054Z,13.53
2019-03-30T02:12:07.632Z,19.45
2019-03-30T02:14:36.265Z,18.90
2019-03-30T02:17:05.135Z,18.40
2019-03-30T02:19:33.864Z,18.82
2019-03-30T02:22:02.366Z,20.20
2019-03-30T02:24:31.068Z,19.17
2019-03-30T02:26:59.643Z,18.20
2019-03-30T02:29:28.246Z,20.62
2019-03-30T02:31:56.998Z,17.35
2019-03-30T02:34:25.562Z,17.27
2019-03-30T02:36:54.424Z,17.57
2019-03-30T02:39:23.304Z,17.62
2019-03-30T02:41:52.024Z,18.15
2019-03-30T02:44:20.592Z,19.50
2019-03-30T02:46:49.149Z,23.05
2019-03-30T02:49:17.839Z,26.62
2019-03-30T02:51:46.478Z,26.93
2019-03-30T02:54:15.168Z,29.00
2019-03-30T02:56:43.808Z,27.48
2019-03-30T02:59:12.503Z,29.42
2019-03-30T03:01:41.268Z,26.87
2019-03-30T03:04:10.029Z,24.75
2019-03-30T03:06:38.684Z,25.00
2019-03-30T03:09:09.290Z,24.32
2019-03-30T03:11:38.184Z,25.30
2019-03-30T03:14:06.855Z,24.00
2019-03-30T03:16:35.464Z,23.65
2019-03-30T03:19:04.121Z,25.17
2019-03-30T03:21:32.697Z,32.33
2019-03-30T03:24:01.435Z,27.00
2019-03-30T03:26:30.109Z,23.45
2019-03-30T03:28:58.626Z,25.30
2019-03-30T03:31:27.576Z,25.68
2019-03-30T03:33:56.364Z,37.80
2019-03-30T03:36:25.044Z,34.98
2019-03-30T03:38:53.638Z,37.80
2019-03-30T03:41:22.441Z,37.00
2019-03-30T03:43:51.198Z,39.05
2019-03-30T03:46:20.025Z,36.85
2019-03-30T03:48:48.674Z,34.95
2019-03-30T03:51:25.998Z,31.52
2019-03-30T03:53:50.146Z,28.15
2019-03-30T03:56:21.952Z,27.32
2019-03-30T03:58:51.638Z,27.73
2019-03-30T04:01:22.421Z,28.60
2019-03-30T04:03:53.323Z,26.70
2019-03-30T04:06:24.695Z,29.45
2019-03-30T04:08:56.198Z,28.92
2019-03-30T04:11:26.568Z,28.12
2019-03-30T04:13:57.244Z,26.33
2019-03-30T04:16:25.943Z,25.40
2019-03-30T04:18:54.689Z,23.90
2019-03-30T04:21:23.426Z,24.43
2019-03-30T04:23:54.231Z,23.75
2019-03-30T04:26:22.407Z,22.27
2019-03-30T04:28:51.122Z,21.97
2019-03-30T04:31:19.751Z,22.80
2019-03-30T04:33:48.333Z,23.40
2019-03-30T04:36:17.079Z,21.25
2019-03-30T04:38:45.643Z,22.82
2019-03-30T04:41:14.178Z,22.90
2019-03-30T04:43:42.665Z,23.05
2019-03-30T04:46:11.359Z,21.60
2019-03-30T04:48:39.921Z,21.75
2019-03-30T04:51:08.531Z,23.35
2019-03-30T04:53:37.065Z,22.70
2019-03-30T04:56:05.739Z,21.87
2019-03-30T04:58:34.424Z,22.10
2019-03-30T05:01:03.007Z,23.00
2019-03-30T05:03:31.495Z,21.35
2019-03-30T05:06:00.145Z,21.20
2019-03-30T05:08:28.697Z,22.58
2019-03-30T05:10:57.279Z,22.07
2019-03-30T05:13:25.838Z,24.77
2019-03-30T05:15:54.470Z,27.10
2019-03-30T05:18:23.167Z,27.20
2019-03-30T05:20:51.720Z,29.50
2019-03-30T05:23:20.240Z,28.38
2019-03-30T05:25:48.862Z,29.02
2019-03-30T05:28:17.422Z,28.80
2019-03-30T05:30:46.012Z,31.73
2019-03-30T05:33:14.584Z,30.10
2019-03-30T05:35:43.101Z,32.00
2019-03-30T05:38:11.589Z,29.50
2019-03-30T05:40:40.220Z,29.23
2019-03-30T05:43:09.331Z,29.90
2019-03-30T05:45:37.959Z,28.20
2019-03-30T05:48:06.704Z,28.42
2019-03-30T05:50:35.278Z,27.95
2019-03-30T05:53:03.848Z,28.15
2019-03-30T05:55:32.609Z,28.30
2019-03-30T05:58:01.218Z,29.63
2019-03-30T06:00:29.776Z,28.17
2019-03-30T06:02:58.398Z,27.37
2019-03-30T06:05:26.967Z,27.45
2019-03-30T06:07:55.578Z,27.90
2019-03-30T06:10:24.067Z,26.93
2019-03-30T06:12:52.659Z,27.65
2019-03-30T06:15:21.215Z,27.52
2019-03-30T06:17:49.735Z,27.20
2019-03-30T06:20:18.481Z,25.97
2019-03-30T06:22:47.118Z,26.25
2019-03-30T06:25:15.729Z,29.40
2019-03-30T06:27:44.363Z,26.52
2019-03-30T06:30:18.744Z,26.97
2019-03-30T06:32:47.597Z,26.80
2019-03-30T06:35:16.303Z,23.05
2019-03-30T06:37:44.900Z,24.90
2019-03-30T06:40:13.996Z,24.25
2019-03-30T06:42:42.553Z,24.30
2019-03-30T06:45:11.265Z,22.90
2019-03-30T06:47:39.955Z,24.15
2019-03-30T06:50:09.146Z,24.50
2019-03-30T06:52:41.097Z,23.70
2019-03-30T06:55:09.024Z,23.62
2019-03-30T06:57:37.681Z,24.32
2019-03-30T07:00:07.876Z,22.48
2019-03-30T07:02:37.568Z,21.93
2019-03-30T07:05:08.307Z,23.18
2019-03-30T07:07:38.631Z,21.82
2019-03-30T07:10:07.783Z,21.90
2019-03-30T07:12:39.361Z,22.45
2019-03-30T07:15:08.820Z,22.10
2019-03-30T07:17:40.387Z,21.48
2019-03-30T07:22:38.229Z,19.85
2019-03-30T07:25:06.928Z,22.98
2019-03-30T07:27:35.469Z,20.30
2019-03-30T07:30:07.961Z,20.82
2019-03-30T07:32:36.532Z,18.90
2019-03-30T07:35:06.683Z,19.77
2019-03-30T07:37:35.229Z,18.77
2019-03-30T07:40:06.099Z,19.17
2019-03-30T07:42:34.591Z,18.67
2019-03-30T07:45:04.425Z,19.23
2019-03-30T07:47:32.957Z,18.62
2019-03-30T07:50:01.518Z,20.30
2019-03-30T07:52:30.116Z,19.80
2019-03-30T07:54:58.705Z,19.80
2019-03-30T07:57:27.485Z,20.50
2019-03-30T07:59:56.918Z,18.50
2019-03-30T08:02:25.484Z,21.68
2019-03-30T08:04:54.073Z,21.42
2019-03-30T08:07:22.651Z,21.55
2019-03-30T08:09:51.153Z,20.97
2019-03-30T08:12:19.900Z,21.73
2019-03-30T08:14:48.463Z,21.17
2019-03-30T08:17:17.185Z,19.92
2019-03-30T08:19:45.832Z,20.48
2019-03-30T08:22:14.403Z,20.30
2019-03-30T08:24:43.024Z,21.07
2019-03-30T08:27:11.571Z,20.88
2019-03-30T08:29:40.244Z,21.75
2019-03-30T08:32:08.843Z,21.37
2019-03-30T08:34:37.342Z,23.60
2019-03-30T08:37:05.925Z,21.50
2019-03-30T08:39:34.492Z,22.32
2019-03-30T08:42:03.087Z,22.27
2019-03-30T08:44:31.797Z,20.62
2019-03-30T08:47:00.366Z,21.93
2019-03-30T08:49:28.934Z,21.33
2019-03-30T08:51:57.500Z,20.15
2019-03-30T08:54:27.060Z,19.15
2019-03-30T08:56:55.622Z,20.52
2019-03-30T08:59:24.226Z,20.12
2019-03-30T09:01:52.815Z,18.37
2019-03-30T09:04:21.387Z,19.07
2019-03-30T09:06:50.053Z,17.07
2019-03-30T09:09:18.629Z,17.40
2019-03-30T09:11:47.347Z,18.17
2019-03-30T09:14:15.997Z,16.70
2019-03-30T09:16:44.628Z,16.50
2019-03-30T09:19:13.278Z,15.63
2019-03-30T09:21:41.940Z,16.35
2019-03-30T09:24:10.612Z,16.65
2019-03-30T09:26:39.373Z,15.48
2019-03-30T09:29:07.960Z,15.45
2019-03-30T09:31:36.475Z,15.23
2019-03-30T09:34:05.113Z,15.55
2019-03-30T09:36:33.965Z,16.32
2019-03-30T09:39:02.956Z,16.25
2019-03-30T09:41:31.544Z,16.10
2019-03-30T09:44:00.142Z,15.58
2019-03-30T09:46:28.752Z,14.35
2019-03-30T09:48:57.240Z,14.75
2019-03-30T09:51:25.836Z,14.85
2019-03-30T09:53:54.446Z,14.47
2019-03-30T09:56:23.028Z,14.40
2019-03-30T09:58:51.642Z,14.07
2019-03-30T10:01:20.146Z,13.90
2019-03-30T10:03:48.803Z,13.48
2019-03-30T10:06:17.371Z,13.18
2019-03-30T10:08:46.006Z,14.28
2019-03-30T10:11:14.649Z,12.80
2019-03-30T10:13:43.303Z,12.53
2019-03-30T10:16:12.090Z,12.35
2019-03-30T10:18:40.727Z,12.60
2019-03-30T10:21:09.280Z,12.33
2019-03-30T10:23:37.974Z,12.07
2019-03-30T10:26:06.741Z,12.00
2019-03-30T10:28:35.263Z,11.03
2019-03-30T10:31:03.961Z,10.75
2019-03-30T10:33:32.711Z,11.90
2019-03-30T10:36:01.302Z,11.30
2019-03-30T10:38:29.865Z,11.40
2019-03-30T10:40:58.373Z,11.43
2019-03-30T10:43:26.864Z,10.95
2019-03-30T10:45:55.528Z,11.10
2019-03-30T10:48:24.218Z,11.28
2019-03-30T10:50:52.714Z,10.80
2019-03-30T10:53:21.242Z,11.15
2019-03-30T10:55:50.362Z,11.00
2019-03-30T10:58:19.239Z,11.53
2019-03-30T11:00:47.872Z,10.88
2019-03-30T11:03:16.433Z,10.32
2019-03-30T11:05:45.082Z,9.58
2019-03-30T11:08:13.704Z,8.58
2019-03-30T11:10:42.570Z,8.65
2019-03-30T11:13:11.271Z,8.45
2019-03-30T11:15:39.839Z,8.48
2019-03-30T11:18:08.568Z,7.62
2019-03-30T11:20:37.296Z,7.30
2019-03-30T11:23:06.044Z,7.12
2019-03-30T11:25:34.673Z,6.83
2019-03-30T11:28:03.174Z,11.05
2019-03-30T11:30:31.818Z,6.75
2019-03-30T11:33:00.389Z,6.50
2019-03-30T11:35:28.972Z,5.85
2019-03-30T11:37:57.464Z,5.53
2019-03-30T11:40:26.086Z,4.80
2019-03-30T11:42:54.727Z,4.90
2019-03-30T11:45:23.304Z,5.08
2019-03-30T11:47:51.944Z,4.62
2019-03-30T11:50:20.660Z,4.83
2019-03-30T11:52:49.235Z,4.12
2019-03-30T11:55:22.014Z,5.03
2019-03-30T11:57:48.305Z,5.10
2019-03-30T12:00:17.034Z,5.05
2019-03-30T12:02:45.517Z,4.53
2019-03-30T12:05:14.182Z,4.53
2019-03-30T12:07:42.918Z,4.33
2019-03-30T12:10:12.115Z,4.35
2019-03-30T12:13:00.095Z,4.60
2019-03-30T12:15:29.202Z,3.75
2019-03-30T12:17:57.766Z,3.50
2019-03-30T12:20:26.351Z,3.58
2019-03-30T12:22:54.908Z,4.20
2019-03-30T12:25:34.907Z,4.33
2019-03-30T12:27:53.799Z,3.70
2019-03-30T12:30:22.284Z,3.58
2019-03-30T12:32:51.044Z,3.92
2019-03-30T12:35:20.119Z,4.87
2019-03-30T12:37:48.802Z,7.22
2019-03-30T12:40:17.798Z,4.83
2019-03-30T12:42:46.358Z,5.40
2019-03-30T12:45:16.890Z,5.00
2019-03-30T12:47:47.195Z,4.95
2019-03-30T12:50:16.148Z,5.33
2019-03-30T12:52:44.842Z,4.70
2019-03-30T12:55:13.474Z,4.80
2019-03-30T12:57:42.054Z,4.20
2019-03-30T13:00:11.253Z,4.70
2019-03-30T13:02:39.943Z,4.62
2019-03-30T13:05:09.281Z,4.10
2019-03-30T13:07:37.928Z,3.80
2019-03-30T13:10:07.436Z,3.85
2019-03-30T13:12:36.191Z,3.98
2019-03-30T13:15:07.348Z,3.35
2019-03-30T13:17:36.229Z,3.85
2019-03-30T13:20:06.768Z,4.20
2019-03-30T13:22:35.375Z,3.95
2019-03-30T13:25:04.904Z,3.77
2019-03-30T13:27:35.195Z,4.03
2019-03-30T13:30:05.765Z,4.45
2019-03-30T13:32:34.423Z,3.70
2019-03-30T13:35:03.251Z,4.15
2019-03-30T13:37:32.001Z,3.58
2019-03-30T13:40:00.646Z,4.28
2019-03-30T13:42:32.463Z,4.33
2019-03-30T13:45:03.587Z,4.00
2019-03-30T13:47:31.408Z,3.62
2019-03-30T13:49:59.907Z,4.00
2019-03-30T13:52:28.404Z,3.30
2019-03-30T13:54:56.957Z,3.15
2019-03-30T13:57:25.537Z,3.60
2019-03-30T13:59:55.720Z,3.98
2019-03-30T14:02:25.091Z,4.00
2019-03-30T14:04:53.661Z,3.67
2019-03-30T14:07:22.368Z,3.77
2019-03-30T14:09:51.092Z,4.00
2019-03-30T14:12:19.648Z,4.05
2019-03-30T14:14:48.161Z,3.50
2019-03-30T14:17:19.891Z,3.83
2019-03-30T14:19:46.869Z,3.62
2019-03-30T14:22:15.520Z,3.22
2019-03-30T14:24:44.098Z,3.75
2019-03-30T14:27:12.761Z,3.45
2019-03-30T14:29:41.385Z,3.62
2019-03-30T14:32:10.074Z,3.60
2019-03-30T14:34:38.755Z,4.10
2019-03-30T14:37:07.622Z,2.80
2019-03-30T14:39:36.281Z,3.12
2019-03-30T14:42:05.120Z,2.80
2019-03-30T14:44:33.604Z,3.55
2019-03-30T14:47:02.218Z,3.22
2019-03-30T14:49:30.811Z,3.75
2019-03-30T14:51:59.466Z,3.90
2019-03-30T14:54:28.087Z,4.00
2019-03-30T14:56:56.640Z,3.35
2019-03-30T14:59:25.152Z,3.65
2019-03-30T15:01:53.727Z,3.58
2019-03-30T15:04:22.341Z,3.30
2019-03-30T15:06:51.011Z,3.17
2019-03-30T15:09:19.645Z,3.37
2019-03-30T15:11:48.284Z,2.77
2019-03-30T15:14:16.843Z,3.15
2019-03-30T15:16:45.505Z,3.30
2019-03-30T15:19:13.997Z,3.08
2019-03-30T15:21:42.743Z,4.00
2019-03-30T15:24:11.394Z,3.00
2019-03-30T15:26:40.135Z,3.17
2019-03-30T15:29:08.818Z,2.70
2019-03-30T15:31:37.385Z,3.40
2019-03-30T15:34:06.161Z,2.70
2019-03-30T15:36:34.672Z,2.98
2019-03-30T15:39:04.700Z,3.25
2019-03-30T15:41:33.282Z,2.65
2019-03-30T15:44:01.949Z,3.22
2019-03-30T15:46:30.729Z,2.85
2019-03-30T15:48:59.333Z,3.00
2019-03-30T15:51:27.901Z,3.00
2019-03-30T15:53:56.495Z,2.92
2019-03-30T15:56:25.123Z,2.60
2019-03-30T15:58:53.899Z,2.67
2019-03-30T16:01:22.761Z,2.65
2019-03-30T16:03:52.289Z,2.65
2019-03-30T16:06:20.882Z,2.30
2019-03-30T16:08:49.605Z,2.10
2019-03-30T16:11:18.241Z,2.05
2019-03-30T16:13:46.812Z,2.30
2019-03-30T16:16:15.459Z,2.20
2019-03-30T16:18:44.065Z,2.75
2019-03-30T16:21:12.787Z,2.40
2019-03-30T16:23:41.353Z,2.58
2019-03-30T16:26:09.932Z,2.20
2019-03-30T16:28:38.558Z,2.33
2019-03-30T16:31:07.130Z,2.00
2019-03-30T16:33:35.687Z,2.50
2019-03-30T16:36:04.395Z,2.30
2019-03-30T16:38:32.992Z,2.52
2019-03-30T16:41:01.706Z,2.15
2019-03-30T16:43:30.382Z,2.45
2019-03-30T16:45:59.308Z,3.37
2019-03-30T16:48:27.797Z,2.40
2019-03-30T16:50:56.464Z,2.02
2019-03-30T16:53:25.012Z,2.30
2019-03-30T16:55:53.550Z,2.17
2019-03-30T16:58:22.107Z,2.17
2019-03-30T17:00:56.790Z,2.10
2019-03-30T17:03:20.833Z,2.12
2019-03-30T17:05:49.542Z,1.98
2019-03-30T17:08:18.444Z,2.20
2019-03-30T17:10:46.995Z,2.15
2019-03-30T17:13:15.557Z,2.22
2019-03-30T17:15:44.350Z,2.33
2019-03-30T17:18:12.976Z,1.90
2019-03-30T17:20:41.515Z,2.12
2019-03-30T17:23:10.208Z,2.33
2019-03-30T17:25:38.760Z,3.00
2019-03-30T17:28:07.388Z,3.60
2019-03-30T17:30:36.095Z,2.90
2019-03-30T17:33:05.344Z,3.65
2019-03-30T17:35:33.972Z,3.00
2019-03-30T17:38:02.540Z,3.37
2019-03-30T17:40:31.262Z,3.02
2019-03-30T17:42:59.967Z,2.83
2019-03-30T17:45:28.694Z,3.15
2019-03-30T17:47:57.275Z,2.95
2019-03-30T17:50:26.025Z,2.37
2019-03-30T17:52:54.611Z,2.87
2019-03-30T17:55:33.634Z,2.75
2019-03-30T17:57:53.558Z,2.50
2019-03-30T18:00:22.551Z,3.62
2019-03-30T18:02:51.173Z,3.55
2019-03-30T18:05:19.818Z,2.70
2019-03-30T18:07:48.350Z,3.42
2019-03-30T18:10:17.484Z,2.70
2019-03-30T18:12:46.183Z,3.08
2019-03-30T18:15:15.190Z,3.33
2019-03-30T18:17:43.848Z,3.10
2019-03-30T18:20:13.941Z,3.00
2019-03-30T18:22:42.628Z,2.50
2019-03-30T18:25:11.856Z,2.80
2019-03-30T18:27:40.418Z,2.70
2019-03-30T18:30:09.627Z,2.45
2019-03-30T18:32:38.265Z,2.62
2019-03-30T18:35:07.235Z,2.27
2019-03-30T18:37:36.439Z,2.72
2019-03-30T18:40:07.625Z,2.60
2019-03-30T18:42:36.337Z,2.55
2019-03-30T18:45:07.157Z,2.55
2019-03-30T18:47:35.862Z,2.90
2019-03-30T18:50:06.942Z,2.85
2019-03-30T18:52:35.693Z,3.45
2019-03-30T18:55:05.537Z,3.17
2019-03-30T18:57:34.118Z,3.15
2019-03-30T19:00:02.713Z,2.90
2019-03-30T19:02:31.277Z,3.20
2019-03-30T19:04:59.965Z,3.30
2019-03-30T19:07:28.505Z,3.30
2019-03-30T19:09:57.180Z,3.50
2019-03-30T19:12:25.917Z,4.28
2019-03-30T19:14:54.614Z,4.12
2019-03-30T19:17:23.165Z,4.10
2019-03-30T19:19:51.812Z,4.12
2019-03-30T19:22:20.295Z,3.85
2019-03-30T19:24:48.818Z,4.03
2019-03-30T19:27:17.440Z,3.92
2019-03-30T19:29:46.012Z,4.05
2019-03-30T19:32:14.590Z,4.25
2019-03-30T19:34:43.164Z,3.70
2019-03-30T19:37:11.739Z,3.87
2019-03-30T19:39:40.306Z,4.10
2019-03-30T19:42:08.862Z,4.03
2019-03-30T19:44:37.433Z,5.90
2019-03-30T19:47:06.071Z,5.58
2019-03-30T19:49:34.658Z,5.15
2019-03-30T19:52:05.712Z,6.72
2019-03-30T19:54:33.737Z,8.65
2019-03-30T19:57:02.467Z,10.60
2019-03-30T19:59:30.959Z,9.53
2019-03-30T20:01:59.688Z,10.43
2019-03-30T20:04:28.247Z,8.65
2019-03-30T20:06:56.811Z,8.75
2019-03-30T20:09:25.411Z,9.73
2019-03-30T20:11:54.042Z,8.95
2019-03-30T20:14:22.638Z,9.58
2019-03-30T20:16:51.195Z,9.73
2019-03-30T20:19:19.835Z,8.98
2019-03-30T20:21:48.487Z,9.58
2019-03-30T20:24:16.982Z,10.95
2019-03-30T20:26:45.636Z,11.88
2019-03-30T20:29:24.638Z,11.00
2019-03-30T20:31:44.411Z,17.50
2019-03-30T20:34:13.068Z,15.63
2019-03-30T20:36:41.752Z,13.25
2019-03-30T20:39:10.477Z,8.83
2019-03-30T20:41:39.106Z,9.13
2019-03-30T20:44:07.735Z,8.25
2019-03-30T20:46:36.397Z,6.83
2019-03-30T20:49:05.091Z,5.97
2019-03-30T20:51:33.603Z,5.67
2019-03-30T20:54:02.398Z,7.03
2019-03-30T20:56:30.948Z,7.15
2019-03-30T20:58:59.609Z,6.35
2019-03-30T21:01:28.169Z,6.08
2019-03-30T21:03:56.714Z,5.83
2019-03-30T21:06:25.356Z,6.72
2019-03-30T21:08:54.008Z,5.75
2019-03-30T21:11:23.318Z,5.03
2019-03-30T21:13:51.884Z,5.70
2019-03-30T21:16:20.468Z,5.35
2019-03-30T21:18:49.042Z,5.03
2019-03-30T21:21:17.656Z,6.37
2019-03-30T21:23:46.421Z,6.35
2019-03-30T21:26:14.979Z,7.17
2019-03-30T21:28:43.486Z,7.33
2019-03-30T21:31:12.053Z,7.85
2019-03-30T21:33:40.571Z,9.98
2019-03-30T21:36:09.064Z,7.53
2019-03-30T21:38:37.645Z,8.78
2019-03-30T21:41:06.303Z,8.15
2019-03-30T21:43:34.856Z,7.85
2019-03-30T21:46:03.454Z,8.13
2019-03-30T21:48:32.012Z,7.53
2019-03-30T21:51:00.581Z,7.45
2019-03-30T21:53:29.165Z,7.65
2019-03-30T21:55:57.742Z,7.28
2019-03-30T21:58:26.350Z,7.20
2019-03-30T22:00:54.970Z,7.17
2019-03-30T22:03:23.531Z,6.55
2019-03-30T22:05:52.253Z,6.58
2019-03-30T22:08:20.950Z,5.87
2019-03-30T22:10:49.453Z,4.90
2019-03-30T22:13:21.359Z,4.62
2019-03-30T22:15:48.224Z,4.17
2019-03-30T22:18:16.723Z,3.80
2019-03-30T22:20:45.297Z,4.25
2019-03-30T22:23:13.892Z,4.42
2019-03-30T22:25:42.504Z,5.05
2019-03-30T22:28:11.075Z,5.90
2019-03-30T22:30:39.653Z,6.25
2019-03-30T22:33:08.290Z,5.97
2019-03-30T22:35:36.874Z,5.65
2019-03-30T22:38:05.503Z,4.45
2019-03-30T22:40:34.254Z,4.47
2019-03-30T22:43:02.821Z,4.12
2019-03-30T22:45:31.457Z,4.15
2019-03-30T22:48:00.049Z,4.10
2019-03-30T22:50:28.603Z,3.75
2019-03-30T22:52:57.157Z,3.85
2019-03-30T22:55:25.736Z,4.08
2019-03-30T22:57:54.432Z,4.40
2019-03-30T23:00:43.133Z,4.45
2019-03-30T23:03:12.081Z,5.12
2019-03-30T23:05:40.819Z,5.28
2019-03-30T23:08:09.493Z,5.75
2019-03-30T23:10:38.175Z,5.28
2019-03-30T23:13:06.851Z,5.33
2019-03-30T23:15:35.487Z,5.05
2019-03-30T23:18:04.337Z,5.45
2019-03-30T23:20:32.898Z,10.75
2019-03-30T23:23:01.515Z,9.38
2019-03-30T23:25:30.179Z,9.40
2019-03-30T23:27:58.748Z,10.25
2019-03-30T23:30:27.428Z,15.08
2019-03-30T23:32:55.923Z,15.28
2019-03-30T23:35:24.636Z,14.35
2019-03-30T23:37:53.296Z,12.95
2019-03-30T23:40:23.675Z,14.40
2019-03-30T23:42:52.266Z,16.32
2019-03-30T23:45:20.830Z,16.80
2019-03-30T23:47:49.647Z,15.38
2019-03-30T23:50:18.300Z,15.78
2019-03-30T23:52:46.857Z,17.15
2019-03-30T23:55:15.563Z,15.18
2019-03-30T23:57:44.214Z,13.32
